Time;durP1;ratioP1;P1;durP2;ratioP2;P2;SDS_P1;SDS_P2;PMS_P1;PMS_P2;Temp;Humidity;BMP_temperature;BMP_pressure;BME280_temperature;BME280_humidity;BME280_pressure;Samples;Min_cycle;Max_cycle;Signal;HPM_P1;HPM_P2
2024/04/04 00:01:17;;;;;;;4.07;1.23;;;10.80;99.90;;;;;;5034092;28;20555;-61
2024/04/04 00:03:45;;;;;;;3.13;1.50;;;10.90;99.90;;;;;;5034109;28;20253;-62
2024/04/04 00:06:12;;;;;;;4.93;1.50;;;10.90;99.90;;;;;;5033361;28;20437;-61
2024/04/04 00:08:39;;;;;;;2.63;1.23;;;10.90;99.90;;;;;;5033004;28;20958;-60
2024/04/04 00:11:10;;;;;;;3.57;1.27;;;10.90;99.90;;;;;;5033719;28;20480;-61
2024/04/04 00:13:36;;;;;;;3.40;1.20;;;10.90;99.90;;;;;;5033706;28;20448;-61
2024/04/04 00:16:03;;;;;;;4.23;1.30;;;10.90;99.90;;;;;;5033286;28;20477;-60
2024/04/04 00:18:28;;;;;;;3.23;1.43;;;11.00;99.90;;;;;;5033081;28;20448;-61
2024/04/04 00:20:55;;;;;;;3.37;1.17;;;11.00;99.90;;;;;;5033228;28;20441;-61
2024/04/04 00:23:21;;;;;;;5.43;1.00;;;11.00;99.90;;;;;;5033092;28;20444;-61
2024/04/04 00:25:49;;;;;;;2.03;0.97;;;11.00;99.90;;;;;;5033089;28;20437;-60
2024/04/04 00:28:15;;;;;;;2.70;1.27;;;11.00;99.90;;;;;;5034245;28;20437;-61
2024/04/04 00:30:42;;;;;;;2.77;1.00;;;11.00;99.90;;;;;;5037364;28;20961;-62
2024/04/04 00:33:08;;;;;;;5.30;1.47;;;11.00;99.90;;;;;;5037190;28;20205;-61
2024/04/04 00:35:34;;;;;;;2.83;1.33;;;11.00;99.90;;;;;;5036844;28;20472;-61
2024/04/04 00:38:00;;;;;;;3.87;1.67;;;11.00;99.90;;;;;;5036996;28;20202;-60
2024/04/04 00:40:27;;;;;;;2.60;1.20;;;11.00;99.90;;;;;;5036845;28;20444;-61
2024/04/04 00:42:58;;;;;;;2.97;1.23;;;11.00;99.90;;;;;;5036640;28;20226;-61
2024/04/04 00:45:25;;;;;;;1.60;1.10;;;11.00;99.90;;;;;;5037039;28;20429;-61
2024/04/04 00:47:51;;;;;;;3.80;1.47;;;10.90;99.90;;;;;;5037010;28;20447;-61
2024/04/04 00:50:18;;;;;;;4.30;1.40;;;10.90;99.90;;;;;;5036923;28;20448;-61
2024/04/04 00:52:44;;;;;;;2.60;1.37;;;10.90;99.90;;;;;;5036943;28;20224;-61
2024/04/04 00:55:11;;;;;;;5.07;1.87;;;10.90;99.90;;;;;;5036656;28;20457;-61
2024/04/04 00:57:38;;;;;;;2.00;1.30;;;11.00;99.90;;;;;;5036647;28;20448;-61
2024/04/04 01:00:08;;;;;;;1.73;1.20;;;11.00;99.90;;;;;;5036878;28;20494;-60
2024/04/04 01:02:34;;;;;;;2.30;1.50;;;11.00;99.90;;;;;;5036410;28;21009;-62
2024/04/04 01:05:01;;;;;;;2.13;1.83;;;11.00;99.90;;;;;;5036628;28;20444;-61
2024/04/04 01:07:27;;;;;;;1.70;1.60;;;11.00;99.90;;;;;;5036651;28;20198;-61
2024/04/04 01:09:54;;;;;;;2.70;2.50;;;11.00;99.90;;;;;;5036386;28;20536;-61
2024/04/04 01:12:20;;;;;;;3.30;1.90;;;11.00;99.90;;;;;;5037280;28;20801;-62
2024/04/04 01:14:47;;;;;;;4.07;2.20;;;11.00;99.90;;;;;;5036851;28;20594;-61
2024/04/04 01:17:14;;;;;;;3.90;2.20;;;11.00;99.90;;;;;;5036339;28;20236;-61
2024/04/04 01:19:40;;;;;;;6.30;2.60;;;11.00;99.90;;;;;;5036600;28;20452;-61
2024/04/04 01:22:06;;;;;;;5.87;2.50;;;11.00;99.90;;;;;;5037515;28;20461;-61
2024/04/04 01:24:34;;;;;;;3.40;2.60;;;10.90;99.90;;;;;;5036644;28;20451;-59
2024/04/04 01:27:00;;;;;;;3.67;2.17;;;11.00;99.90;;;;;;5037050;28;20581;-62
2024/04/04 01:29:27;;;;;;;2.67;2.27;;;11.00;99.90;;;;;;5036607;28;20528;-62
2024/04/04 01:31:53;;;;;;;4.40;2.47;;;10.90;99.90;;;;;;5036631;28;20232;-61
2024/04/04 01:34:19;;;;;;;4.03;2.50;;;10.90;99.90;;;;;;5036724;28;20878;-60
2024/04/04 01:36:45;;;;;;;3.83;2.40;;;10.90;99.90;;;;;;5036471;28;20225;-60
2024/04/04 01:39:12;;;;;;;5.70;2.77;;;10.90;99.90;;;;;;5036337;28;20441;-60
2024/04/04 01:41:42;;;;;;;6.27;3.17;;;10.90;99.90;;;;;;5035121;28;20492;-60
2024/04/04 01:44:09;;;;;;;5.03;2.87;;;10.90;99.90;;;;;;5036710;28;20453;-60
2024/04/04 01:46:35;;;;;;;2.33;2.10;;;10.80;99.90;;;;;;5035550;28;20433;-61
2024/04/04 01:49:01;;;;;;;5.13;2.50;;;10.80;99.90;;;;;;5036585;28;20977;-60
2024/04/04 01:51:27;;;;;;;5.77;2.43;;;10.70;99.90;;;;;;5036729;28;20309;-60
2024/04/04 01:53:54;;;;;;;3.80;2.47;;;10.60;99.90;;;;;;5036224;28;20514;-60
2024/04/04 01:56:20;;;;;;;2.87;2.23;;;10.60;99.90;;;;;;5036166;28;20774;-62
2024/04/04 01:58:48;;;;;;;6.70;1.97;;;10.50;99.90;;;;;;5036074;28;20544;-62
2024/04/04 02:01:14;;;;;;;3.70;1.97;;;10.40;99.90;;;;;;5051739;22;20720;-63
2024/04/04 02:03:40;;;;;;;5.10;2.20;;;10.40;99.90;;;;;;5065861;28;20459;-64
2024/04/04 02:06:06;;;;;;;2.70;1.90;;;10.30;99.90;;;;;;5063120;28;20201;-62
2024/04/04 02:08:33;;;;;;;2.13;1.87;;;10.30;99.90;;;;;;5057325;28;20968;-64
2024/04/04 02:10:59;;;;;;;3.93;2.07;;;10.20;99.90;;;;;;5056742;28;20202;-64
2024/04/04 02:13:26;;;;;;;3.37;2.17;;;10.20;99.90;;;;;;5058869;28;20466;-63
2024/04/04 02:15:54;;;;;;;4.03;2.13;;;10.10;99.90;;;;;;5062400;28;20229;-63
2024/04/04 02:18:20;;;;;;;2.33;1.80;;;10.10;99.90;;;;;;5064143;28;20451;-63
2024/04/04 02:20:46;;;;;;;4.63;2.87;;;10.10;99.90;;;;;;5059255;28;20444;-62
2024/04/04 02:23:13;;;;;;;2.77;1.90;;;10.10;99.90;;;;;;5056739;28;20525;-63
2024/04/04 02:25:39;;;;;;;6.00;2.03;;;10.10;99.90;;;;;;5056929;28;20764;-63
2024/04/04 02:28:06;;;;;;;3.50;1.97;;;10.10;99.90;;;;;;5056543;28;20535;-63
2024/04/04 02:30:32;;;;;;;2.60;1.73;;;10.20;99.90;;;;;;5056302;28;20204;-63
2024/04/04 02:33:00;;;;;;;2.43;1.43;;;10.20;99.90;;;;;;5055809;28;20468;-63
2024/04/04 02:35:26;;;;;;;3.37;2.00;;;10.20;99.90;;;;;;5055560;28;20667;-62
2024/04/04 02:37:52;;;;;;;2.17;1.47;;;10.30;99.90;;;;;;5056559;28;20482;-62
2024/04/04 02:40:18;;;;;;;3.27;2.47;;;10.30;99.90;;;;;;5057213;28;20198;-62
2024/04/04 02:42:45;;;;;;;2.50;1.60;;;10.30;99.90;;;;;;5056264;28;20882;-63
2024/04/04 02:45:11;;;;;;;2.70;1.40;;;10.30;99.90;;;;;;5055539;28;20201;-63
2024/04/04 02:47:37;;;;;;;5.07;1.60;;;10.30;99.90;;;;;;5055171;28;20511;-63
2024/04/04 02:50:06;;;;;;;2.77;1.47;;;10.30;99.90;;;;;;5055333;28;20198;-63
2024/04/04 02:52:33;;;;;;;5.20;1.60;;;10.30;99.90;;;;;;5054141;28;20514;-64
2024/04/04 02:55:00;;;;;;;5.93;1.63;;;10.30;99.90;;;;;;5055000;28;20872;-64
2024/04/04 02:57:26;;;;;;;3.13;1.63;;;10.30;99.90;;;;;;5054960;28;20559;-64
2024/04/04 02:59:52;;;;;;;1.50;1.40;;;10.30;99.90;;;;;;5054893;28;20441;-63
2024/04/04 03:02:19;;;;;;;1.90;1.30;;;10.30;99.90;;;;;;5055205;28;20879;-62
2024/04/04 03:04:44;;;;;;;1.93;1.30;;;10.20;99.90;;;;;;5055088;28;20212;-63
2024/04/04 03:07:13;;;;;;;3.07;2.23;;;10.10;99.90;;;;;;5055236;28;20440;-63
2024/04/04 03:09:38;;;;;;;2.20;1.40;;;10.10;99.90;;;;;;5055588;28;20216;-64
2024/04/04 03:12:06;;;;;;;3.00;1.70;;;10.00;99.90;;;;;;5055154;28;20452;-64
2024/04/04 03:14:31;;;;;;;2.77;1.70;;;9.90;99.90;;;;;;5054702;28;20267;-64
2024/04/04 03:16:58;;;;;;;10.77;1.50;;;9.80;99.90;;;;;;5054463;28;20568;-63
2024/04/04 03:19:24;;;;;;;2.43;1.50;;;9.80;99.90;;;;;;5054527;28;20573;-63
2024/04/04 03:21:51;;;;;;;2.40;1.27;;;9.70;99.90;;;;;;5055260;28;20466;-66
2024/04/04 03:24:18;;;;;;;4.20;1.35;;;9.70;99.90;;;;;;5055217;28;20201;-63
2024/04/04 03:26:44;;;;;;;1.77;1.20;;;9.60;99.90;;;;;;5054390;28;20635;-62
2024/04/04 03:29:10;;;;;;;3.47;1.40;;;9.60;99.90;;;;;;5054882;28;20198;-63
2024/04/04 03:31:38;;;;;;;3.77;1.47;;;9.50;99.90;;;;;;5054867;28;20460;-64
2024/04/04 03:34:03;;;;;;;3.73;1.40;;;9.50;99.90;;;;;;5055013;28;20201;-62
2024/04/04 03:36:30;;;;;;;4.20;1.47;;;9.40;99.90;;;;;;5054811;28;20541;-63
2024/04/04 03:38:57;;;;;;;3.30;1.60;;;9.40;99.90;;;;;;5054903;28;20202;-63
2024/04/04 03:41:25;;;;;;;2.38;1.35;;;9.40;99.90;;;;;;5054812;28;20471;-62
2024/04/04 03:43:53;;;;;;;3.63;1.63;;;9.30;99.90;;;;;;5056001;28;20207;-63
2024/04/04 03:46:18;;;;;;;2.10;1.42;;;9.30;99.90;;;;;;5054543;28;20214;-63
2024/04/04 03:48:45;;;;;;;2.40;1.27;;;9.30;99.90;;;;;;5054761;28;20299;-63
2024/04/04 03:51:11;;;;;;;1.70;1.25;;;9.30;99.90;;;;;;5054876;28;20256;-62
2024/04/04 03:53:38;;;;;;;6.73;1.60;;;9.30;99.90;;;;;;5055682;28;20208;-64
2024/04/04 03:56:04;;;;;;;6.35;2.03;;;9.20;99.90;;;;;;5056177;28;20208;-63
2024/04/04 03:58:32;;;;;;;3.27;1.60;;;9.20;99.90;;;;;;5054796;28;20204;-62
2024/04/04 04:00:58;;;;;;;1.50;1.02;;;9.20;99.90;;;;;;5060763;28;20205;-62
2024/04/04 04:03:24;;;;;;;5.40;1.37;;;9.20;99.90;;;;;;5055906;28;20312;-62
2024/04/04 04:05:51;;;;;;;2.00;1.17;;;9.20;99.90;;;;;;5055370;28;20201;-62
2024/04/04 04:08:17;;;;;;;3.40;1.27;;;9.20;99.90;;;;;;5059314;28;20222;-64
2024/04/04 04:13:34;;;;;;;1.98;1.10;;;9.10;99.90;;;;;;5111535;27;20324;-61
2024/04/04 04:16:01;;;;;;;3.28;1.50;;;9.00;99.90;;;;;;5111545;28;20203;-62
2024/04/04 04:18:28;;;;;;;6.05;0.95;;;9.00;99.90;;;;;;5110745;28;20730;-62
2024/04/04 04:23:38;;;;;;;5.80;2.08;;;9.00;99.90;;;;;;5100914;28;20592;-62
2024/04/04 04:26:04;;;;;;;6.68;1.58;;;8.90;99.90;;;;;;5111023;28;20196;-61
2024/04/04 04:28:30;;;;;;;3.70;1.40;;;8.90;99.90;;;;;;5110957;28;20195;-60
2024/04/04 04:30:58;;;;;;;2.97;1.20;;;8.90;99.90;;;;;;5111041;28;20200;-63
2024/04/04 04:33:24;;;;;;;3.10;1.20;;;8.90;99.90;;;;;;5110337;28;20219;-62
2024/04/04 04:35:50;;;;;;;4.53;1.33;;;8.80;99.90;;;;;;5110571;28;20202;-62
2024/04/04 04:38:17;;;;;;;3.40;1.67;;;8.80;99.90;;;;;;5110477;28;20202;-62
2024/04/04 04:40:43;;;;;;;3.63;1.30;;;8.80;99.90;;;;;;5110307;28;20298;-62
2024/04/04 04:43:10;;;;;;;4.47;1.27;;;8.80;99.90;;;;;;5110423;28;20212;-61
2024/04/04 04:45:37;;;;;;;5.35;1.95;;;8.80;99.90;;;;;;5110505;28;20207;-62
2024/04/04 04:48:05;;;;;;;6.47;1.60;;;8.80;99.90;;;;;;5110013;28;20202;-61
2024/04/04 04:50:32;;;;;;;8.77;1.23;;;8.80;99.90;;;;;;5109873;28;20664;-60
2024/04/04 04:52:58;;;;;;;3.08;1.02;;;8.80;99.90;;;;;;5110205;28;20777;-61
2024/04/04 04:55:25;;;;;;;3.17;1.63;;;8.80;99.90;;;;;;5110313;28;20219;-61
2024/04/04 04:57:51;;;;;;;1.95;1.20;;;8.90;99.90;;;;;;5110151;28;20200;-62
2024/04/04 05:00:21;;;;;;;5.18;1.30;;;8.90;99.90;;;;;;5109577;28;20670;-61
2024/04/04 05:02:47;;;;;;;3.70;1.58;;;8.90;99.90;;;;;;5110119;28;20215;-61
2024/04/04 05:05:16;;;;;;;2.03;1.20;;;9.00;99.90;;;;;;5110133;28;20561;-61
2024/04/04 05:07:42;;;;;;;5.07;1.40;;;9.10;99.90;;;;;;5110098;28;20230;-62
2024/04/04 05:10:09;;;;;;;3.90;1.17;;;9.10;99.90;;;;;;5109932;28;20441;-62
2024/04/04 05:12:35;;;;;;;2.13;1.25;;;9.20;99.90;;;;;;5122240;28;20230;-62
2024/04/04 05:15:02;;;;;;;2.30;1.20;;;9.30;99.90;;;;;;5130186;28;20289;-62
2024/04/04 05:17:28;;;;;;;5.13;1.60;;;9.40;99.90;;;;;;5130493;28;20205;-61
2024/04/04 05:19:54;;;;;;;4.13;1.40;;;9.50;99.90;;;;;;5130196;28;20527;-62
2024/04/04 05:22:22;;;;;;;3.27;2.00;;;9.60;99.90;;;;;;5130161;28;20226;-62
2024/04/04 05:24:48;;;;;;;8.33;1.63;;;9.70;99.90;;;;;;5116546;28;20521;-62
2024/04/04 05:27:14;;;;;;;2.20;1.30;;;9.80;99.90;;;;;;5116645;28;20437;-60
2024/04/04 05:29:42;;;;;;;3.10;1.60;;;9.90;99.90;;;;;;5116362;28;20489;-63
2024/04/04 05:32:08;;;;;;;2.50;1.50;;;9.90;99.90;;;;;;5116034;28;20844;-61
2024/04/04 05:34:35;;;;;;;4.87;1.63;;;10.00;99.90;;;;;;5115913;28;20441;-61
2024/04/04 05:37:02;;;;;;;7.47;1.97;;;10.00;99.90;;;;;;5116252;28;20210;-60
2024/04/04 05:39:30;;;;;;;3.10;1.80;;;10.00;99.90;;;;;;5116225;28;20447;-61
2024/04/04 05:41:56;;;;;;;4.90;1.80;;;10.00;99.90;;;;;;5116034;28;20468;-61
2024/04/04 05:44:22;;;;;;;5.60;1.93;;;10.10;99.90;;;;;;5115754;28;20445;-61
2024/04/04 05:46:49;;;;;;;4.50;2.03;;;10.10;99.90;;;;;;5115767;28;20203;-61
2024/04/04 05:49:15;;;;;;;5.00;1.50;;;10.10;99.90;;;;;;5115869;28;20444;-61
2024/04/04 05:51:41;;;;;;;3.77;1.00;;;10.20;99.90;;;;;;5115146;28;20987;-61
2024/04/04 05:54:08;;;;;;;2.57;1.90;;;10.20;99.90;;;;;;5115440;28;20519;-61
2024/04/04 05:56:35;;;;;;;2.27;1.07;;;10.30;99.90;;;;;;5115893;28;20195;-61
2024/04/04 05:59:02;;;;;;;3.30;1.40;;;10.40;99.90;;;;;;5115576;28;20954;-61
2024/04/04 06:01:28;;;;;;;5.00;1.20;;;10.50;99.90;;;;;;5115465;28;20465;-62
2024/04/04 06:03:54;;;;;;;3.20;1.33;;;10.50;99.90;;;;;;5115479;28;20438;-60
2024/04/04 06:06:20;;;;;;;3.90;1.50;;;10.60;99.90;;;;;;5116049;28;20195;-60
2024/04/04 06:08:47;;;;;;;5.17;2.17;;;10.60;99.90;;;;;;5115626;28;20433;-61
2024/04/04 06:11:13;;;;;;;3.13;1.20;;;10.60;99.90;;;;;;5114795;28;20244;-61
2024/04/04 06:13:41;;;;;;;3.20;1.40;;;10.60;99.90;;;;;;5115361;28;20921;-61
2024/04/04 06:16:07;;;;;;;2.13;1.40;;;10.60;99.90;;;;;;5115387;28;20459;-60
2024/04/04 06:18:34;;;;;;;2.97;1.10;;;10.50;99.90;;;;;;5115546;28;21002;-61
2024/04/04 06:20:59;;;;;;;4.50;1.60;;;10.50;99.90;;;;;;5115440;28;20199;-61
2024/04/04 06:23:28;;;;;;;2.47;1.30;;;10.40;99.90;;;;;;5115104;28;20463;-61
2024/04/04 06:25:54;;;;;;;2.67;1.77;;;10.40;99.90;;;;;;5115137;28;20677;-61
2024/04/04 06:28:21;;;;;;;4.53;1.30;;;10.30;99.90;;;;;;5115072;28;20444;-61
2024/04/04 06:30:48;;;;;;;7.90;2.10;;;10.30;99.90;;;;;;5114754;28;20208;-61
2024/04/04 06:33:15;;;;;;;3.00;1.40;;;10.30;99.90;;;;;;5115108;28;20480;-61
2024/04/04 06:35:41;;;;;;;9.43;2.20;;;10.30;99.90;;;;;;5113948;28;20448;-62
2024/04/04 06:38:08;;;;;;;1.57;1.00;;;10.30;99.90;;;;;;5115435;28;20445;-61
2024/04/04 06:40:37;;;;;;;4.10;1.33;;;10.40;99.90;;;;;;5115390;28;20740;-60
2024/04/04 06:43:05;;;;;;;2.77;1.20;;;10.40;99.90;;;;;;5115266;28;20488;-60
2024/04/04 06:45:31;;;;;;;5.53;1.60;;;10.40;99.90;;;;;;5114583;28;20441;-61
2024/04/04 06:48:00;;;;;;;5.10;1.83;;;10.40;99.90;;;;;;5115052;28;20437;-60
2024/04/04 06:50:27;;;;;;;4.33;1.50;;;10.50;99.90;;;;;;5114829;28;20498;-60
2024/04/04 06:52:54;;;;;;;2.50;1.40;;;10.50;99.90;;;;;;5114811;28;20978;-60
2024/04/04 06:55:19;;;;;;;1.50;1.00;;;10.50;99.90;;;;;;5114715;28;20441;-61
2024/04/04 06:57:48;;;;;;;5.83;1.70;;;10.60;99.90;;;;;;5114314;28;20443;-61
2024/04/04 07:00:14;;;;;;;3.53;1.70;;;10.60;99.90;;;;;;5114420;28;20448;-61
2024/04/04 07:02:41;;;;;;;8.60;2.10;;;10.70;99.90;;;;;;5114947;28;20472;-62
2024/04/04 07:05:09;;;;;;;5.17;1.30;;;10.70;99.90;;;;;;5114411;28;20441;-62
2024/04/04 07:07:36;;;;;;;7.30;1.30;;;10.80;99.90;;;;;;5114519;28;20441;-61
2024/04/04 07:10:05;;;;;;;4.27;1.47;;;10.80;99.90;;;;;;5113911;28;20440;-61
2024/04/04 07:12:30;;;;;;;4.67;1.30;;;10.80;99.90;;;;;;5113564;28;20543;-62
2024/04/04 07:14:57;;;;;;;5.07;1.33;;;10.80;99.90;;;;;;5114116;28;20465;-61
2024/04/04 07:17:23;;;;;;;3.93;1.50;;;10.80;99.90;;;;;;5114422;28;20290;-62
2024/04/04 07:19:53;;;;;;;3.00;1.30;;;10.80;99.90;;;;;;5114098;28;20433;-61
2024/04/04 07:22:21;;;;;;;3.57;1.53;;;10.80;99.90;;;;;;5114819;28;20476;-60
2024/04/04 07:24:48;;;;;;;3.93;1.43;;;10.90;99.90;;;;;;5114801;28;20448;-61
2024/04/04 07:27:14;;;;;;;2.17;1.10;;;10.90;99.90;;;;;;5114979;28;20442;-61
2024/04/04 07:29:43;;;;;;;3.93;1.30;;;10.90;99.90;;;;;;5114784;28;20437;-60
2024/04/04 07:32:09;;;;;;;3.03;1.17;;;10.90;99.90;;;;;;5114225;28;20481;-62
2024/04/04 07:34:36;;;;;;;2.93;1.57;;;10.90;99.90;;;;;;5115098;28;20441;-61
2024/04/04 07:37:02;;;;;;;2.67;1.50;;;10.90;99.90;;;;;;5115358;28;20441;-61
2024/04/04 07:39:31;;;;;;;3.60;1.30;;;10.90;99.90;;;;;;5114145;28;20437;-60
2024/04/04 07:41:57;;;;;;;2.77;1.57;;;10.90;99.90;;;;;;5114498;28;20461;-61
2024/04/04 07:44:24;;;;;;;5.33;1.73;;;10.90;99.90;;;;;;5114022;28;20441;-61
2024/04/04 07:46:51;;;;;;;3.90;1.70;;;10.90;99.90;;;;;;5113922;28;20460;-60
2024/04/04 07:49:18;;;;;;;4.87;1.40;;;11.10;99.90;;;;;;5113695;28;20445;-61
2024/04/04 07:51:44;;;;;;;2.33;1.60;;;11.10;99.90;;;;;;5113343;28;20461;-61
2024/04/04 07:54:11;;;;;;;4.83;1.90;;;11.10;99.90;;;;;;5113747;28;20468;-61
2024/04/04 07:56:38;;;;;;;2.90;1.70;;;11.10;99.90;;;;;;5113450;28;20808;-61
2024/04/04 07:59:05;;;;;;;3.30;1.47;;;11.10;99.90;;;;;;5113831;28;20433;-61
2024/04/04 08:01:31;;;;;;;2.67;1.47;;;11.10;99.90;;;;;;5113601;28;20453;-61
2024/04/04 08:03:58;;;;;;;3.17;1.73;;;11.10;99.90;;;;;;5113653;28;20424;-61
2024/04/04 08:06:24;;;;;;;5.37;1.77;;;11.10;99.90;;;;;;5113342;28;20200;-61
2024/04/04 08:08:50;;;;;;;3.77;1.77;;;11.10;99.90;;;;;;5113757;28;20444;-61
2024/04/04 08:11:16;;;;;;;3.47;1.10;;;11.10;99.90;;;;;;5112956;28;20207;-61
2024/04/04 08:13:45;;;;;;;2.97;2.13;;;11.10;99.90;;;;;;5113667;28;20454;-60
2024/04/04 08:16:11;;;;;;;2.83;1.63;;;11.10;99.90;;;;;;5113519;28;20447;-60
2024/04/04 08:18:38;;;;;;;3.30;1.40;;;11.20;99.90;;;;;;5113522;28;20822;-61
2024/04/04 08:21:04;;;;;;;2.13;1.47;;;11.20;99.90;;;;;;5113916;28;20231;-64
2024/04/04 08:23:31;;;;;;;4.47;1.60;;;11.20;99.90;;;;;;5114277;28;20992;-61
2024/04/04 08:25:58;;;;;;;2.70;1.53;;;11.20;99.90;;;;;;5113303;28;20923;-61
2024/04/04 08:28:25;;;;;;;4.93;1.73;;;11.30;99.90;;;;;;5113037;28;20931;-61
2024/04/04 08:30:57;;;;;;;3.10;1.80;;;11.30;99.90;;;;;;5113511;28;20448;-61
2024/04/04 08:33:24;;;;;;;2.40;1.57;;;11.30;99.90;;;;;;5113307;28;20477;-61
2024/04/04 08:35:49;;;;;;;2.13;1.63;;;11.30;99.90;;;;;;5113326;28;20452;-61
2024/04/04 08:38:16;;;;;;;3.80;1.90;;;11.30;99.90;;;;;;5113734;28;20445;-62
2024/04/04 08:40:42;;;;;;;1.70;1.60;;;11.30;99.90;;;;;;5114113;28;20229;-62
2024/04/04 08:43:09;;;;;;;3.97;1.70;;;11.30;99.90;;;;;;5113880;28;20461;-60
2024/04/04 08:45:45;;;;;;;5.33;1.70;;;11.30;99.90;;;;;;5113328;28;20437;-61
2024/04/04 08:48:15;;;;;;;5.80;1.60;;;11.40;99.90;;;;;;5113824;28;20425;-60
2024/04/04 08:50:45;;;;;;;4.07;2.00;;;11.30;99.90;;;;;;5113349;28;20442;-60
2024/04/04 08:53:13;;;;;;;3.80;1.67;;;11.30;99.90;;;;;;5113200;28;20473;-61
2024/04/04 08:55:40;;;;;;;3.13;1.70;;;11.30;99.90;;;;;;5113619;28;20449;-62
2024/04/04 08:58:09;;;;;;;2.57;1.80;;;11.30;99.90;;;;;;5112911;28;20466;-60
2024/04/04 09:00:35;;;;;;;4.47;1.80;;;11.40;99.90;;;;;;5117555;28;20444;-61
2024/04/04 09:03:01;;;;;;;2.10;1.70;;;11.40;99.90;;;;;;5117110;28;20457;-62
2024/04/04 09:05:28;;;;;;;5.00;2.07;;;11.40;99.90;;;;;;5117217;28;20571;-62
2024/04/04 09:07:55;;;;;;;4.60;1.80;;;11.40;99.90;;;;;;5118165;28;20440;-61
2024/04/04 09:10:21;;;;;;;4.33;2.40;;;11.50;99.90;;;;;;5117437;28;20437;-61
2024/04/04 09:12:48;;;;;;;2.13;1.70;;;11.60;99.90;;;;;;5116430;28;20487;-62
2024/04/04 09:15:16;;;;;;;6.17;2.27;;;11.60;99.90;;;;;;5116775;28;20520;-60
2024/04/04 09:17:44;;;;;;;4.77;1.97;;;11.80;99.90;;;;;;5116681;28;20445;-61
2024/04/04 09:20:10;;;;;;;4.13;1.87;;;11.90;99.90;;;;;;5116863;28;20463;-61
2024/04/04 09:22:40;;;;;;;3.13;2.17;;;12.10;99.90;;;;;;5116406;28;21057;-62
2024/04/04 09:25:09;;;;;;;3.83;1.67;;;12.20;99.90;;;;;;5116656;28;20445;-61
2024/04/04 09:27:38;;;;;;;2.20;1.60;;;12.30;99.90;;;;;;5116674;28;20528;-63
2024/04/04 09:30:11;;;;;;;2.57;1.90;;;12.50;99.90;;;;;;5116777;28;20442;-61
2024/04/04 09:32:38;;;;;;;2.00;1.80;;;12.60;99.90;;;;;;5116185;28;20473;-61
2024/04/04 09:35:05;;;;;;;1.50;1.40;;;12.70;99.90;;;;;;5116043;28;20444;-60
2024/04/04 09:37:34;;;;;;;5.60;2.20;;;12.80;99.90;;;;;;5117270;28;20502;-60
2024/04/04 09:40:03;;;;;;;3.20;1.70;;;12.80;99.90;;;;;;5117114;28;20492;-62
2024/04/04 09:42:31;;;;;;;1.77;1.53;;;12.90;99.90;;;;;;5116448;28;20458;-60
2024/04/04 09:44:57;;;;;;;3.37;1.60;;;12.90;99.90;;;;;;5116763;28;20899;-62
2024/04/04 09:47:26;;;;;;;2.70;2.17;;;12.90;99.90;;;;;;5116525;28;20452;-62
2024/04/04 09:49:52;;;;;;;3.33;1.40;;;13.00;99.90;;;;;;5116199;28;20211;-61
2024/04/04 09:52:22;;;;;;;2.03;1.77;;;13.00;99.90;;;;;;5116632;28;20469;-61
2024/04/04 09:54:49;;;;;;;1.70;1.33;;;13.10;99.90;;;;;;5118303;28;20437;-61
2024/04/04 09:57:18;;;;;;;4.87;1.80;;;13.20;99.90;;;;;;5116617;28;20895;-62
2024/04/04 09:59:47;;;;;;;2.47;1.43;;;13.30;99.90;;;;;;5117213;28;20444;-62
2024/04/04 10:02:14;;;;;;;2.50;1.47;;;13.40;99.90;;;;;;5117149;28;20461;-61
2024/04/04 10:04:40;;;;;;;3.60;1.27;;;13.50;99.90;;;;;;5117958;28;20441;-61
2024/04/04 10:07:07;;;;;;;2.37;1.30;;;13.50;99.90;;;;;;5116943;28;20512;-60
2024/04/04 10:09:37;;;;;;;1.67;1.40;;;13.50;99.90;;;;;;5117662;28;20511;-60
2024/04/04 10:12:09;;;;;;;4.40;1.40;;;13.60;99.90;;;;;;5116935;28;20483;-60
2024/04/04 10:14:36;;;;;;;3.83;1.30;;;13.60;99.90;;;;;;5117365;28;20530;-62
2024/04/04 10:17:06;;;;;;;2.23;1.60;;;13.60;99.90;;;;;;5117073;28;20904;-59
2024/04/04 10:19:34;;;;;;;3.00;1.30;;;13.50;99.90;;;;;;5117186;28;20930;-61
2024/04/04 10:22:02;;;;;;;2.73;1.63;;;13.50;99.90;;;;;;5116388;28;20493;-60
2024/04/04 10:24:30;;;;;;;1.90;1.50;;;13.50;99.90;;;;;;5115841;28;20438;-62
2024/04/04 10:26:59;;;;;;;2.93;1.40;;;13.50;99.90;;;;;;5116168;28;20527;-62
2024/04/04 10:29:30;;;;;;;2.70;1.40;;;13.50;99.90;;;;;;5115890;28;20845;-61
2024/04/04 10:31:58;;;;;;;3.37;1.57;;;13.50;99.90;;;;;;5116022;28;20522;-61
2024/04/04 10:34:24;;;;;;;1.63;1.50;;;13.50;99.90;;;;;;5115365;28;20500;-62
2024/04/04 10:36:51;;;;;;;3.70;1.90;;;13.50;99.90;;;;;;5115650;28;20903;-61
2024/04/04 10:39:18;;;;;;;3.03;1.70;;;13.50;99.90;;;;;;5114775;28;20448;-62
2024/04/04 10:41:45;;;;;;;1.90;1.37;;;13.40;99.90;;;;;;5115259;28;20457;-61
2024/04/04 10:44:13;;;;;;;3.17;1.57;;;13.30;99.90;;;;;;5114594;28;20520;-63
2024/04/04 10:46:42;;;;;;;3.93;1.93;;;13.00;99.90;;;;;;5115424;28;20528;-62
2024/04/04 10:49:11;;;;;;;2.47;1.40;;;12.80;99.90;;;;;;5115376;28;20445;-62
2024/04/04 10:51:39;;;;;;;4.20;1.20;;;12.70;99.90;;;;;;5115584;28;20472;-62
2024/04/04 10:54:05;;;;;;;1.70;1.60;;;12.60;99.90;;;;;;5115505;28;20473;-62
2024/04/04 10:56:32;;;;;;;1.53;1.13;;;12.50;99.90;;;;;;5115431;28;20441;-62
2024/04/04 10:58:58;;;;;;;2.10;1.53;;;12.60;99.90;;;;;;5115454;28;20786;-63
2024/04/04 11:01:25;;;;;;;4.80;2.10;;;12.60;99.90;;;;;;5115457;28;20457;-62
2024/04/04 11:03:53;;;;;;;2.97;1.60;;;12.70;99.90;;;;;;5114865;28;20441;-61
2024/04/04 11:06:21;;;;;;;5.50;2.17;;;12.70;99.90;;;;;;5115199;28;20452;-61
2024/04/04 11:08:49;;;;;;;2.73;1.77;;;12.80;99.90;;;;;;5114708;28;20441;-61
2024/04/04 11:11:17;;;;;;;2.93;1.70;;;12.90;99.90;;;;;;5114301;28;20998;-63
2024/04/04 11:13:43;;;;;;;3.37;2.03;;;13.00;99.90;;;;;;5114937;28;20461;-61
2024/04/04 11:16:10;;;;;;;1.83;1.50;;;12.90;99.90;;;;;;5113993;28;20965;-63
2024/04/04 11:18:37;;;;;;;3.53;2.13;;;12.80;99.90;;;;;;5113570;28;20210;-63
2024/04/04 11:21:07;;;;;;;4.87;1.70;;;12.70;99.90;;;;;;5113446;28;20817;-65
2024/04/04 11:23:34;;;;;;;3.47;1.90;;;12.50;99.90;;;;;;5114059;28;20448;-63
2024/04/04 11:26:01;;;;;;;6.97;2.80;;;12.50;99.90;;;;;;5113913;28;20445;-62
2024/04/04 11:28:27;;;;;;;3.67;2.23;;;12.50;99.90;;;;;;5114246;28;20437;-62
2024/04/04 11:30:54;;;;;;;1.73;1.63;;;12.40;99.90;;;;;;5113884;28;20439;-62
2024/04/04 11:33:20;;;;;;;3.93;2.40;;;12.40;99.90;;;;;;5113323;28;20994;-61
2024/04/04 11:35:47;;;;;;;2.30;2.10;;;12.30;99.90;;;;;;5113855;28;20467;-63
2024/04/04 11:38:13;;;;;;;1.70;1.60;;;12.30;99.90;;;;;;5113975;28;20202;-59
2024/04/04 11:40:41;;;;;;;3.40;2.27;;;12.30;99.90;;;;;;5114461;28;20528;-62
2024/04/04 11:43:07;;;;;;;1.80;1.70;;;12.40;99.90;;;;;;5113986;28;20459;-61
2024/04/04 11:45:35;;;;;;;3.50;1.43;;;12.50;99.90;;;;;;5113450;28;20437;-62
2024/04/04 11:48:01;;;;;;;2.60;1.50;;;12.60;99.90;;;;;;5113744;28;20441;-61
2024/04/04 11:50:31;;;;;;;4.60;1.50;;;12.60;99.90;;;;;;5113748;28;20520;-61
2024/04/04 11:52:58;;;;;;;1.40;1.30;;;12.80;99.90;;;;;;5112922;28;20991;-61
2024/04/04 11:55:25;;;;;;;1.40;1.30;;;12.90;99.90;;;;;;5113207;28;20464;-61
2024/04/04 11:57:52;;;;;;;4.57;1.33;;;13.20;99.90;;;;;;5113782;28;20441;-62
2024/04/04 12:00:20;;;;;;;2.03;1.00;;;13.40;99.90;;;;;;5113494;28;20531;-61
2024/04/04 12:02:46;;;;;;;1.53;0.77;;;13.60;99.90;;;;;;5113627;28;20521;-60
2024/04/04 12:05:14;;;;;;;1.97;1.20;;;13.80;99.90;;;;;;5113117;28;20923;-61
2024/04/04 12:07:41;;;;;;;1.30;1.03;;;14.00;99.90;;;;;;5113723;28;20452;-61
2024/04/04 12:10:08;;;;;;;2.70;1.07;;;14.10;99.90;;;;;;5113622;28;20444;-60
2024/04/04 12:12:34;;;;;;;3.20;1.27;;;14.10;99.90;;;;;;5113248;28;20852;-60
2024/04/04 12:15:07;;;;;;;1.23;0.80;;;14.20;99.90;;;;;;5112838;28;20485;-61
2024/04/04 12:17:33;;;;;;;4.50;1.53;;;14.30;99.90;;;;;;5113493;28;20244;-62
2024/04/04 12:19:58;;;;;;;2.07;1.00;;;14.30;99.90;;;;;;5113144;28;20517;-62
2024/04/04 12:22:25;;;;;;;4.33;1.20;;;14.40;99.90;;;;;;5113484;28;20461;-60
2024/04/04 12:24:52;;;;;;;4.43;0.80;;;14.40;99.90;;;;;;5113144;28;20207;-61
2024/04/04 12:27:18;;;;;;;1.80;1.00;;;14.50;99.90;;;;;;5113377;28;20444;-62
2024/04/04 12:29:44;;;;;;;1.10;0.90;;;14.50;99.90;;;;;;5113272;28;20438;-61
2024/04/04 12:32:12;;;;;;;3.27;0.90;;;14.60;99.90;;;;;;5112463;28;20219;-64
2024/04/04 12:34:39;;;;;;;1.17;0.83;;;14.60;99.90;;;;;;5116282;28;20481;-61
2024/04/04 12:37:06;;;;;;;1.67;0.97;;;14.80;99.90;;;;;;5118525;28;20449;-61
2024/04/04 12:39:31;;;;;;;1.63;1.07;;;15.00;99.90;;;;;;5117610;28;20952;-60
2024/04/04 12:41:58;;;;;;;2.80;1.40;;;15.10;99.90;;;;;;5117936;28;20461;-61
2024/04/04 12:44:24;;;;;;;2.33;1.20;;;15.20;99.90;;;;;;5117083;28;20665;-61
2024/04/04 12:46:51;;;;;;;1.07;0.97;;;15.30;99.90;;;;;;5118132;28;20447;-61
2024/04/04 12:49:18;;;;;;;1.70;0.83;;;15.40;99.90;;;;;;5118070;28;20207;-62
2024/04/04 12:51:44;;;;;;;1.00;0.77;;;15.50;99.90;;;;;;5117834;28;20473;-62